sensor_id;sensor_type;location;lat;lon;timestamp;P1;durP1;ratioP1;P2;durP2;ratioP2
28724;SDS011;43472;48.980;9.646;2024-03-02T00:03:09;16.15;;;7.78;;
28724;SDS011;43472;48.980;9.646;2024-03-02T00:08:17;15.15;;;8.95;;
28724;SDS011;43472;48.980;9.646;2024-03-02T00:13:27;12.45;;;8.27;;
28724;SDS011;43472;48.980;9.646;2024-03-02T00:18:34;13.43;;;7.80;;
28724;SDS011;43472;48.980;9.646;2024-03-02T00:23:37;14.57;;;7.85;;
28724;SDS011;43472;48.980;9.646;2024-03-02T00:28:44;11.65;;;7.30;;
28724;SDS011;43472;48.980;9.646;2024-03-02T00:33:47;19.63;;;10.98;;
28724;SDS011;43472;48.980;9.646;2024-03-02T00:38:51;29.33;;;11.27;;
28724;SDS011;43472;48.980;9.646;2024-03-02T00:44:02;21.90;;;11.50;;
28724;SDS011;43472;48.980;9.646;2024-03-02T00:54:24;16.23;;;8.88;;
28724;SDS011;43472;48.980;9.646;2024-03-02T00:59:28;14.80;;;7.35;;
28724;SDS011;43472;48.980;9.646;2024-03-02T01:04:31;15.23;;;8.20;;
28724;SDS011;43472;48.980;9.646;2024-03-02T01:09:33;13.20;;;8.23;;
28724;SDS011;43472;48.980;9.646;2024-03-02T01:14:35;17.02;;;8.32;;
28724;SDS011;43472;48.980;9.646;2024-03-02T01:19:38;13.40;;;7.93;;
28724;SDS011;43472;48.980;9.646;2024-03-02T01:24:42;14.10;;;8.18;;
28724;SDS011;43472;48.980;9.646;2024-03-02T01:29:44;14.98;;;7.88;;
28724;SDS011;43472;48.980;9.646;2024-03-02T01:34:46;13.02;;;8.30;;
28724;SDS011;43472;48.980;9.646;2024-03-02T01:39:49;13.20;;;7.57;;
28724;SDS011;43472;48.980;9.646;2024-03-02T01:44:51;13.75;;;8.40;;
28724;SDS011;43472;48.980;9.646;2024-03-02T01:49:53;14.43;;;7.45;;
28724;SDS011;43472;48.980;9.646;2024-03-02T01:54:55;11.70;;;7.63;;
28724;SDS011;43472;48.980;9.646;2024-03-02T01:59:58;15.25;;;7.47;;
28724;SDS011;43472;48.980;9.646;2024-03-02T02:05:01;15.63;;;8.38;;
28724;SDS011;43472;48.980;9.646;2024-03-02T02:10:03;10.80;;;7.57;;
28724;SDS011;43472;48.980;9.646;2024-03-02T02:20:23;11.70;;;7.35;;
28724;SDS011;43472;48.980;9.646;2024-03-02T02:25:26;11.55;;;7.88;;
28724;SDS011;43472;48.980;9.646;2024-03-02T02:30:31;13.77;;;7.18;;
28724;SDS011;43472;48.980;9.646;2024-03-02T02:35:33;11.30;;;7.05;;
28724;SDS011;43472;48.980;9.646;2024-03-02T02:40:36;13.32;;;7.78;;
28724;SDS011;43472;48.980;9.646;2024-03-02T02:45:38;11.77;;;7.25;;
28724;SDS011;43472;48.980;9.646;2024-03-02T02:50:41;11.65;;;8.38;;
28724;SDS011;43472;48.980;9.646;2024-03-02T02:55:43;13.98;;;8.30;;
28724;SDS011;43472;48.980;9.646;2024-03-02T03:00:46;15.60;;;9.05;;
28724;SDS011;43472;48.980;9.646;2024-03-02T03:05:50;14.23;;;9.02;;
28724;SDS011;43472;48.980;9.646;2024-03-02T03:10:51;13.60;;;7.90;;
28724;SDS011;43472;48.980;9.646;2024-03-02T03:15:54;12.10;;;8.43;;
28724;SDS011;43472;48.980;9.646;2024-03-02T03:20:56;13.85;;;7.97;;
28724;SDS011;43472;48.980;9.646;2024-03-02T03:25:58;17.55;;;8.73;;
28724;SDS011;43472;48.980;9.646;2024-03-02T03:31:01;16.38;;;9.70;;
28724;SDS011;43472;48.980;9.646;2024-03-02T03:36:03;14.90;;;8.65;;
28724;SDS011;43472;48.980;9.646;2024-03-02T03:41:05;17.02;;;8.70;;
28724;SDS011;43472;48.980;9.646;2024-03-02T03:46:07;23.17;;;8.38;;
28724;SDS011;43472;48.980;9.646;2024-03-02T03:51:10;14.45;;;7.85;;
28724;SDS011;43472;48.980;9.646;2024-03-02T03:56:12;9.30;;;6.78;;
28724;SDS011;43472;48.980;9.646;2024-03-02T04:01:15;11.40;;;7.15;;
28724;SDS011;43472;48.980;9.646;2024-03-02T04:06:18;10.38;;;7.63;;
28724;SDS011;43472;48.980;9.646;2024-03-02T04:11:21;13.15;;;7.82;;
28724;SDS011;43472;48.980;9.646;2024-03-02T04:16:23;12.02;;;8.00;;
28724;SDS011;43472;48.980;9.646;2024-03-02T04:21:26;15.88;;;8.93;;
28724;SDS011;43472;48.980;9.646;2024-03-02T04:26:28;13.98;;;8.40;;
28724;SDS011;43472;48.980;9.646;2024-03-02T04:31:31;17.60;;;8.98;;
28724;SDS011;43472;48.980;9.646;2024-03-02T04:36:33;22.05;;;9.85;;
28724;SDS011;43472;48.980;9.646;2024-03-02T04:41:35;20.17;;;10.00;;
28724;SDS011;43472;48.980;9.646;2024-03-02T04:46:37;20.33;;;9.80;;
28724;SDS011;43472;48.980;9.646;2024-03-02T04:51:39;19.42;;;9.63;;
28724;SDS011;43472;48.980;9.646;2024-03-02T04:56:41;17.63;;;9.32;;
28724;SDS011;43472;48.980;9.646;2024-03-02T05:01:51;15.82;;;8.90;;
28724;SDS011;43472;48.980;9.646;2024-03-02T05:06:53;14.52;;;8.70;;
28724;SDS011;43472;48.980;9.646;2024-03-02T05:11:57;15.00;;;9.20;;
28724;SDS011;43472;48.980;9.646;2024-03-02T05:17:18;16.73;;;10.13;;
28724;SDS011;43472;48.980;9.646;2024-03-02T05:22:20;14.63;;;9.00;;
28724;SDS011;43472;48.980;9.646;2024-03-02T05:27:23;18.00;;;9.45;;
28724;SDS011;43472;48.980;9.646;2024-03-02T05:32:25;18.27;;;10.55;;
28724;SDS011;43472;48.980;9.646;2024-03-02T05:37:29;15.18;;;8.57;;
28724;SDS011;43472;48.980;9.646;2024-03-02T05:42:31;13.45;;;8.20;;
28724;SDS011;43472;48.980;9.646;2024-03-02T05:47:33;15.07;;;9.18;;
28724;SDS011;43472;48.980;9.646;2024-03-02T05:52:35;16.85;;;8.63;;
28724;SDS011;43472;48.980;9.646;2024-03-02T05:57:37;17.45;;;9.00;;
28724;SDS011;43472;48.980;9.646;2024-03-02T06:02:42;16.70;;;9.15;;
28724;SDS011;43472;48.980;9.646;2024-03-02T06:07:44;18.52;;;9.90;;
28724;SDS011;43472;48.980;9.646;2024-03-02T06:12:46;18.65;;;9.52;;
28724;SDS011;43472;48.980;9.646;2024-03-02T06:17:48;14.25;;;8.45;;
28724;SDS011;43472;48.980;9.646;2024-03-02T06:22:50;15.15;;;8.85;;
28724;SDS011;43472;48.980;9.646;2024-03-02T06:27:52;15.02;;;9.27;;
28724;SDS011;43472;48.980;9.646;2024-03-02T06:32:54;20.95;;;8.88;;
28724;SDS011;43472;48.980;9.646;2024-03-02T06:37:56;16.25;;;9.48;;
28724;SDS011;43472;48.980;9.646;2024-03-02T06:42:59;16.63;;;9.27;;
28724;SDS011;43472;48.980;9.646;2024-03-02T06:48:03;16.58;;;9.40;;
28724;SDS011;43472;48.980;9.646;2024-03-02T06:53:05;18.50;;;9.60;;
28724;SDS011;43472;48.980;9.646;2024-03-02T06:58:07;19.65;;;10.40;;
28724;SDS011;43472;48.980;9.646;2024-03-02T07:03:09;18.58;;;10.35;;
28724;SDS011;43472;48.980;9.646;2024-03-02T07:08:11;17.98;;;10.82;;
28724;SDS011;43472;48.980;9.646;2024-03-02T07:13:14;17.98;;;10.82;;
28724;SDS011;43472;48.980;9.646;2024-03-02T07:18:16;16.92;;;10.63;;
28724;SDS011;43472;48.980;9.646;2024-03-02T07:23:18;21.40;;;12.82;;
28724;SDS011;43472;48.980;9.646;2024-03-02T07:28:28;21.83;;;12.55;;
28724;SDS011;43472;48.980;9.646;2024-03-02T07:33:30;25.42;;;13.68;;
28724;SDS011;43472;48.980;9.646;2024-03-02T07:38:32;23.98;;;13.30;;
28724;SDS011;43472;48.980;9.646;2024-03-02T07:43:36;35.13;;;18.25;;
28724;SDS011;43472;48.980;9.646;2024-03-02T07:48:39;32.65;;;16.88;;
28724;SDS011;43472;48.980;9.646;2024-03-02T07:53:41;28.85;;;16.05;;
28724;SDS011;43472;48.980;9.646;2024-03-02T07:58:44;26.30;;;15.93;;
28724;SDS011;43472;48.980;9.646;2024-03-02T08:03:47;27.20;;;14.73;;
28724;SDS011;43472;48.980;9.646;2024-03-02T08:08:51;20.63;;;11.80;;
28724;SDS011;43472;48.980;9.646;2024-03-02T08:13:53;23.85;;;13.75;;
28724;SDS011;43472;48.980;9.646;2024-03-02T08:18:56;23.13;;;13.73;;
28724;SDS011;43472;48.980;9.646;2024-03-02T08:24:02;18.95;;;11.55;;
28724;SDS011;43472;48.980;9.646;2024-03-02T08:29:04;23.70;;;13.48;;
28724;SDS011;43472;48.980;9.646;2024-03-02T08:34:06;19.05;;;11.38;;
28724;SDS011;43472;48.980;9.646;2024-03-02T08:39:09;18.35;;;11.90;;
28724;SDS011;43472;48.980;9.646;2024-03-02T08:44:17;24.45;;;15.35;;
28724;SDS011;43472;48.980;9.646;2024-03-02T08:49:19;11.57;;;7.18;;
28724;SDS011;43472;48.980;9.646;2024-03-02T08:54:21;19.60;;;7.07;;
28724;SDS011;43472;48.980;9.646;2024-03-02T08:59:23;14.75;;;9.85;;
28724;SDS011;43472;48.980;9.646;2024-03-02T09:04:26;8.32;;;5.38;;
28724;SDS011;43472;48.980;9.646;2024-03-02T09:09:32;8.30;;;5.68;;
28724;SDS011;43472;48.980;9.646;2024-03-02T09:14:34;7.93;;;4.60;;
28724;SDS011;43472;48.980;9.646;2024-03-02T09:19:38;5.85;;;4.00;;
28724;SDS011;43472;48.980;9.646;2024-03-02T09:24:41;6.75;;;4.05;;
28724;SDS011;43472;48.980;9.646;2024-03-02T09:29:43;8.05;;;4.07;;
28724;SDS011;43472;48.980;9.646;2024-03-02T09:34:45;6.63;;;4.00;;
28724;SDS011;43472;48.980;9.646;2024-03-02T09:39:49;7.93;;;5.00;;
28724;SDS011;43472;48.980;9.646;2024-03-02T09:44:53;5.00;;;3.25;;
28724;SDS011;43472;48.980;9.646;2024-03-02T09:49:56;5.20;;;2.90;;
28724;SDS011;43472;48.980;9.646;2024-03-02T09:54:58;4.70;;;3.45;;
28724;SDS011;43472;48.980;9.646;2024-03-02T10:00:00;3.10;;;2.45;;
28724;SDS011;43472;48.980;9.646;2024-03-02T10:05:02;5.63;;;3.42;;
28724;SDS011;43472;48.980;9.646;2024-03-02T10:10:15;4.05;;;2.83;;
28724;SDS011;43472;48.980;9.646;2024-03-02T10:15:23;3.28;;;1.98;;
28724;SDS011;43472;48.980;9.646;2024-03-02T10:20:28;3.22;;;2.28;;
28724;SDS011;43472;48.980;9.646;2024-03-02T10:25:31;6.47;;;2.60;;
28724;SDS011;43472;48.980;9.646;2024-03-02T10:30:37;4.00;;;2.88;;
28724;SDS011;43472;48.980;9.646;2024-03-02T10:35:39;4.00;;;2.50;;
28724;SDS011;43472;48.980;9.646;2024-03-02T10:40:46;3.42;;;2.10;;
28724;SDS011;43472;48.980;9.646;2024-03-02T10:45:50;4.40;;;1.60;;
28724;SDS011;43472;48.980;9.646;2024-03-02T10:50:54;2.05;;;1.30;;
28724;SDS011;43472;48.980;9.646;2024-03-02T10:55:59;3.45;;;1.00;;
28724;SDS011;43472;48.980;9.646;2024-03-02T11:01:04;2.95;;;1.30;;
28724;SDS011;43472;48.980;9.646;2024-03-02T11:06:09;1.55;;;1.05;;
28724;SDS011;43472;48.980;9.646;2024-03-02T11:11:15;1.60;;;1.10;;
28724;SDS011;43472;48.980;9.646;2024-03-02T11:21:36;1.05;;;0.57;;
28724;SDS011;43472;48.980;9.646;2024-03-02T11:26:39;1.52;;;1.20;;
28724;SDS011;43472;48.980;9.646;2024-03-02T11:31:57;4.30;;;0.93;;
28724;SDS011;43472;48.980;9.646;2024-03-02T11:37:00;1.25;;;0.90;;
28724;SDS011;43472;48.980;9.646;2024-03-02T11:42:05;2.45;;;1.48;;
28724;SDS011;43472;48.980;9.646;2024-03-02T11:47:13;3.65;;;0.80;;
28724;SDS011;43472;48.980;9.646;2024-03-02T11:52:17;0.80;;;0.60;;
28724;SDS011;43472;48.980;9.646;2024-03-02T11:57:22;0.90;;;0.60;;
28724;SDS011;43472;48.980;9.646;2024-03-02T12:02:25;1.38;;;0.85;;
28724;SDS011;43472;48.980;9.646;2024-03-02T12:07:30;1.98;;;0.65;;
28724;SDS011;43472;48.980;9.646;2024-03-02T12:12:32;0.95;;;0.63;;
28724;SDS011;43472;48.980;9.646;2024-03-02T12:17:34;3.80;;;1.52;;
28724;SDS011;43472;48.980;9.646;2024-03-02T12:22:36;4.13;;;1.23;;
28724;SDS011;43472;48.980;9.646;2024-03-02T12:27:39;0.95;;;0.68;;
28724;SDS011;43472;48.980;9.646;2024-03-02T12:32:41;1.27;;;1.17;;
28724;SDS011;43472;48.980;9.646;2024-03-02T12:37:44;0.65;;;0.43;;
28724;SDS011;43472;48.980;9.646;2024-03-02T12:42:46;0.52;;;0.40;;
28724;SDS011;43472;48.980;9.646;2024-03-02T12:47:49;0.38;;;0.30;;
28724;SDS011;43472;48.980;9.646;2024-03-02T12:52:53;0.40;;;0.38;;
28724;SDS011;43472;48.980;9.646;2024-03-02T12:57:56;0.85;;;0.40;;
28724;SDS011;43472;48.980;9.646;2024-03-02T13:02:58;3.70;;;0.50;;
28724;SDS011;43472;48.980;9.646;2024-03-02T13:08:04;0.47;;;0.47;;
28724;SDS011;43472;48.980;9.646;2024-03-02T13:13:08;0.80;;;0.40;;
28724;SDS011;43472;48.980;9.646;2024-03-02T13:18:10;0.30;;;0.25;;
28724;SDS011;43472;48.980;9.646;2024-03-02T13:23:15;6.03;;;0.65;;
28724;SDS011;43472;48.980;9.646;2024-03-02T13:28:17;0.25;;;0.25;;
28724;SDS011;43472;48.980;9.646;2024-03-02T13:33:19;0.68;;;0.40;;
28724;SDS011;43472;48.980;9.646;2024-03-02T13:38:24;0.50;;;0.45;;
28724;SDS011;43472;48.980;9.646;2024-03-02T13:43:26;0.38;;;0.38;;
28724;SDS011;43472;48.980;9.646;2024-03-02T13:48:29;1.10;;;0.98;;
28724;SDS011;43472;48.980;9.646;2024-03-02T13:53:32;1.15;;;0.88;;
28724;SDS011;43472;48.980;9.646;2024-03-02T13:58:36;0.95;;;0.82;;
28724;SDS011;43472;48.980;9.646;2024-03-02T14:03:38;1.77;;;0.80;;
28724;SDS011;43472;48.980;9.646;2024-03-02T14:08:40;2.72;;;1.38;;
28724;SDS011;43472;48.980;9.646;2024-03-02T14:13:46;3.00;;;0.88;;
28724;SDS011;43472;48.980;9.646;2024-03-02T14:18:55;1.77;;;0.90;;
28724;SDS011;43472;48.980;9.646;2024-03-02T14:23:58;0.70;;;0.50;;
28724;SDS011;43472;48.980;9.646;2024-03-02T14:29:00;1.10;;;0.60;;
28724;SDS011;43472;48.980;9.646;2024-03-02T14:34:05;0.52;;;0.43;;
28724;SDS011;43472;48.980;9.646;2024-03-02T14:39:07;2.38;;;0.68;;
28724;SDS011;43472;48.980;9.646;2024-03-02T14:44:11;0.85;;;0.50;;
28724;SDS011;43472;48.980;9.646;2024-03-02T14:49:13;1.77;;;0.70;;
28724;SDS011;43472;48.980;9.646;2024-03-02T14:54:15;1.67;;;0.47;;
28724;SDS011;43472;48.980;9.646;2024-03-02T14:59:17;1.50;;;0.60;;
28724;SDS011;43472;48.980;9.646;2024-03-02T15:04:20;0.82;;;0.60;;
28724;SDS011;43472;48.980;9.646;2024-03-02T15:09:22;0.30;;;0.28;;
28724;SDS011;43472;48.980;9.646;2024-03-02T15:14:24;3.65;;;2.17;;
28724;SDS011;43472;48.980;9.646;2024-03-02T15:19:27;0.45;;;0.43;;
28724;SDS011;43472;48.980;9.646;2024-03-02T15:24:31;3.22;;;0.57;;
28724;SDS011;43472;48.980;9.646;2024-03-02T15:29:35;1.77;;;0.50;;
28724;SDS011;43472;48.980;9.646;2024-03-02T15:34:37;1.58;;;0.90;;
28724;SDS011;43472;48.980;9.646;2024-03-02T15:39:41;3.05;;;1.70;;
28724;SDS011;43472;48.980;9.646;2024-03-02T15:44:45;3.65;;;2.22;;
28724;SDS011;43472;48.980;9.646;2024-03-02T15:49:47;3.20;;;1.30;;
28724;SDS011;43472;48.980;9.646;2024-03-02T15:54:50;3.05;;;1.60;;
28724;SDS011;43472;48.980;9.646;2024-03-02T15:59:53;8.05;;;1.98;;
28724;SDS011;43472;48.980;9.646;2024-03-02T16:04:55;2.63;;;1.60;;
28724;SDS011;43472;48.980;9.646;2024-03-02T16:09:56;2.45;;;1.20;;
28724;SDS011;43472;48.980;9.646;2024-03-02T16:14:59;3.65;;;1.98;;
28724;SDS011;43472;48.980;9.646;2024-03-02T16:20:02;7.22;;;1.98;;
28724;SDS011;43472;48.980;9.646;2024-03-02T16:25:07;3.38;;;2.20;;
28724;SDS011;43472;48.980;9.646;2024-03-02T16:30:11;5.82;;;3.15;;
28724;SDS011;43472;48.980;9.646;2024-03-02T16:35:13;5.50;;;3.40;;
28724;SDS011;43472;48.980;9.646;2024-03-02T16:40:17;5.03;;;3.28;;
28724;SDS011;43472;48.980;9.646;2024-03-02T16:45:19;6.07;;;3.83;;
28724;SDS011;43472;48.980;9.646;2024-03-02T16:50:21;7.88;;;5.15;;
28724;SDS011;43472;48.980;9.646;2024-03-02T16:55:23;11.10;;;5.88;;
28724;SDS011;43472;48.980;9.646;2024-03-02T17:00:25;13.82;;;7.57;;
28724;SDS011;43472;48.980;9.646;2024-03-02T17:05:29;14.75;;;9.50;;
28724;SDS011;43472;48.980;9.646;2024-03-02T17:10:31;14.40;;;8.35;;
28724;SDS011;43472;48.980;9.646;2024-03-02T17:15:33;15.13;;;9.02;;
28724;SDS011;43472;48.980;9.646;2024-03-02T17:20:35;17.50;;;9.32;;
28724;SDS011;43472;48.980;9.646;2024-03-02T17:25:40;18.45;;;9.80;;
28724;SDS011;43472;48.980;9.646;2024-03-02T17:30:45;21.00;;;9.88;;
28724;SDS011;43472;48.980;9.646;2024-03-02T17:35:47;23.65;;;11.05;;
28724;SDS011;43472;48.980;9.646;2024-03-02T17:40:50;20.23;;;10.25;;
28724;SDS011;43472;48.980;9.646;2024-03-02T17:45:52;18.52;;;9.85;;
28724;SDS011;43472;48.980;9.646;2024-03-02T17:50:55;20.15;;;11.30;;
28724;SDS011;43472;48.980;9.646;2024-03-02T17:55:57;20.45;;;11.15;;
28724;SDS011;43472;48.980;9.646;2024-03-02T18:00:59;20.73;;;12.02;;
28724;SDS011;43472;48.980;9.646;2024-03-02T18:06:04;28.20;;;15.30;;
28724;SDS011;43472;48.980;9.646;2024-03-02T18:11:06;21.23;;;11.43;;
28724;SDS011;43472;48.980;9.646;2024-03-02T18:16:11;23.15;;;12.90;;
28724;SDS011;43472;48.980;9.646;2024-03-02T18:21:15;25.98;;;13.43;;
28724;SDS011;43472;48.980;9.646;2024-03-02T18:26:18;32.35;;;13.38;;
28724;SDS011;43472;48.980;9.646;2024-03-02T18:31:23;25.02;;;13.10;;
28724;SDS011;43472;48.980;9.646;2024-03-02T18:36:25;24.55;;;12.93;;
28724;SDS011;43472;48.980;9.646;2024-03-02T18:41:28;27.15;;;14.00;;
28724;SDS011;43472;48.980;9.646;2024-03-02T18:46:30;22.17;;;12.88;;
28724;SDS011;43472;48.980;9.646;2024-03-02T18:51:32;23.83;;;13.70;;
28724;SDS011;43472;48.980;9.646;2024-03-02T18:56:33;22.35;;;11.80;;
28724;SDS011;43472;48.980;9.646;2024-03-02T19:01:36;32.75;;;18.70;;
28724;SDS011;43472;48.980;9.646;2024-03-02T19:06:38;25.00;;;13.63;;
28724;SDS011;43472;48.980;9.646;2024-03-02T19:11:40;29.02;;;14.15;;
28724;SDS011;43472;48.980;9.646;2024-03-02T19:16:42;20.90;;;12.48;;
28724;SDS011;43472;48.980;9.646;2024-03-02T19:21:45;23.58;;;12.95;;
28724;SDS011;43472;48.980;9.646;2024-03-02T19:26:59;21.83;;;12.38;;
28724;SDS011;43472;48.980;9.646;2024-03-02T19:32:01;23.17;;;12.52;;
28724;SDS011;43472;48.980;9.646;2024-03-02T19:37:12;19.92;;;12.10;;
28724;SDS011;43472;48.980;9.646;2024-03-02T19:42:14;23.63;;;13.23;;
28724;SDS011;43472;48.980;9.646;2024-03-02T19:47:16;24.75;;;14.35;;
28724;SDS011;43472;48.980;9.646;2024-03-02T19:52:21;23.05;;;12.25;;
28724;SDS011;43472;48.980;9.646;2024-03-02T19:57:23;28.05;;;13.82;;
28724;SDS011;43472;48.980;9.646;2024-03-02T20:02:27;26.33;;;12.73;;
28724;SDS011;43472;48.980;9.646;2024-03-02T20:07:32;24.15;;;13.15;;
28724;SDS011;43472;48.980;9.646;2024-03-02T20:12:36;25.95;;;13.15;;
28724;SDS011;43472;48.980;9.646;2024-03-02T20:17:39;22.48;;;12.23;;
28724;SDS011;43472;48.980;9.646;2024-03-02T20:22:41;20.33;;;11.32;;
28724;SDS011;43472;48.980;9.646;2024-03-02T20:27:44;21.55;;;12.15;;
28724;SDS011;43472;48.980;9.646;2024-03-02T20:32:47;27.90;;;13.73;;
28724;SDS011;43472;48.980;9.646;2024-03-02T20:37:49;25.55;;;12.10;;
28724;SDS011;43472;48.980;9.646;2024-03-02T20:42:51;26.75;;;13.20;;
28724;SDS011;43472;48.980;9.646;2024-03-02T20:47:53;28.17;;;12.70;;
28724;SDS011;43472;48.980;9.646;2024-03-02T20:52:55;23.92;;;11.55;;
28724;SDS011;43472;48.980;9.646;2024-03-02T20:58:02;25.98;;;12.73;;
28724;SDS011;43472;48.980;9.646;2024-03-02T21:03:03;26.27;;;12.18;;
28724;SDS011;43472;48.980;9.646;2024-03-02T21:08:06;25.60;;;12.48;;
28724;SDS011;43472;48.980;9.646;2024-03-02T21:13:10;24.38;;;12.20;;
28724;SDS011;43472;48.980;9.646;2024-03-02T21:18:13;28.27;;;13.90;;
28724;SDS011;43472;48.980;9.646;2024-03-02T21:23:15;34.28;;;17.08;;
28724;SDS011;43472;48.980;9.646;2024-03-02T21:28:18;30.55;;;14.80;;
28724;SDS011;43472;48.980;9.646;2024-03-02T21:33:20;29.45;;;15.95;;
28724;SDS011;43472;48.980;9.646;2024-03-02T21:38:22;27.10;;;14.75;;
28724;SDS011;43472;48.980;9.646;2024-03-02T21:43:25;33.50;;;15.57;;
28724;SDS011;43472;48.980;9.646;2024-03-02T21:48:28;34.30;;;16.33;;
28724;SDS011;43472;48.980;9.646;2024-03-02T21:53:32;29.63;;;16.23;;
28724;SDS011;43472;48.980;9.646;2024-03-02T21:58:34;32.05;;;14.88;;
28724;SDS011;43472;48.980;9.646;2024-03-02T22:03:37;36.28;;;16.15;;
28724;SDS011;43472;48.980;9.646;2024-03-02T22:08:40;31.85;;;16.58;;
28724;SDS011;43472;48.980;9.646;2024-03-02T22:13:42;36.10;;;15.55;;
28724;SDS011;43472;48.980;9.646;2024-03-02T22:18:46;35.85;;;17.60;;
28724;SDS011;43472;48.980;9.646;2024-03-02T22:23:48;31.80;;;16.55;;
28724;SDS011;43472;48.980;9.646;2024-03-02T22:28:50;31.77;;;17.83;;
28724;SDS011;43472;48.980;9.646;2024-03-02T22:33:53;29.67;;;14.45;;
28724;SDS011;43472;48.980;9.646;2024-03-02T22:38:55;33.95;;;16.42;;
28724;SDS011;43472;48.980;9.646;2024-03-02T22:43:57;35.05;;;15.82;;
28724;SDS011;43472;48.980;9.646;2024-03-02T22:49:02;34.05;;;17.38;;
28724;SDS011;43472;48.980;9.646;2024-03-02T22:54:04;33.63;;;16.00;;
28724;SDS011;43472;48.980;9.646;2024-03-02T22:59:06;26.17;;;14.35;;
28724;SDS011;43472;48.980;9.646;2024-03-02T23:04:07;32.28;;;16.13;;
28724;SDS011;43472;48.980;9.646;2024-03-02T23:09:09;31.95;;;16.17;;
28724;SDS011;43472;48.980;9.646;2024-03-02T23:14:12;34.53;;;15.25;;
28724;SDS011;43472;48.980;9.646;2024-03-02T23:19:14;34.33;;;15.70;;
28724;SDS011;43472;48.980;9.646;2024-03-02T23:24:22;36.25;;;15.60;;
28724;SDS011;43472;48.980;9.646;2024-03-02T23:29:24;32.45;;;15.63;;
28724;SDS011;43472;48.980;9.646;2024-03-02T23:34:27;30.50;;;15.00;;
28724;SDS011;43472;48.980;9.646;2024-03-02T23:39:29;35.13;;;16.35;;
28724;SDS011;43472;48.980;9.646;2024-03-02T23:44:58;31.55;;;15.25;;
28724;SDS011;43472;48.980;9.646;2024-03-02T23:50:03;28.83;;;14.40;;
28724;SDS011;43472;48.980;9.646;2024-03-02T23:55:06;31.45;;;15.25;;
